sensor_id;sensor_type;location;lat;lon;timestamp;temperature;humidity
48328;DHT22;34136;51.022;7.082;2022-12-07T00:01:47;5.50;19.50
48328;DHT22;34136;51.022;7.082;2022-12-07T00:04:33;5.50;19.30
48328;DHT22;34136;51.022;7.082;2022-12-07T00:07:19;5.50;19.30
48328;DHT22;34136;51.022;7.082;2022-12-07T00:10:05;5.60;19.30
48328;DHT22;34136;51.022;7.082;2022-12-07T00:13:10;5.60;19.10
48328;DHT22;34136;51.022;7.082;2022-12-07T00:16:16;5.60;18.80
48328;DHT22;34136;51.022;7.082;2022-12-07T00:19:03;5.50;18.80
48328;DHT22;34136;51.022;7.082;2022-12-07T00:21:49;5.50;19.00
48328;DHT22;34136;51.022;7.082;2022-12-07T00:24:35;5.50;19.00
48328;DHT22;34136;51.022;7.082;2022-12-07T00:27:22;5.50;19.00
48328;DHT22;34136;51.022;7.082;2022-12-07T00:30:08;5.50;19.10
48328;DHT22;34136;51.022;7.082;2022-12-07T00:33:13;5.50;19.10
48328;DHT22;34136;51.022;7.082;2022-12-07T00:36:00;5.50;19.20
48328;DHT22;34136;51.022;7.082;2022-12-07T00:38:46;5.50;19.60
48328;DHT22;34136;51.022;7.082;2022-12-07T00:41:33;5.50;19.70
48328;DHT22;34136;51.022;7.082;2022-12-07T00:44:19;5.60;19.60
48328;DHT22;34136;51.022;7.082;2022-12-07T00:47:05;5.60;19.40
48328;DHT22;34136;51.022;7.082;2022-12-07T00:49:51;5.50;19.30
48328;DHT22;34136;51.022;7.082;2022-12-07T00:52:55;5.60;19.40
48328;DHT22;34136;51.022;7.082;2022-12-07T00:56:11;5.50;19.80
48328;DHT22;34136;51.022;7.082;2022-12-07T00:59:00;5.60;19.50
48328;DHT22;34136;51.022;7.082;2022-12-07T01:01:46;5.60;19.50
48328;DHT22;34136;51.022;7.082;2022-12-07T01:04:50;5.50;19.30
48328;DHT22;34136;51.022;7.082;2022-12-07T01:07:55;5.50;19.50
48328;DHT22;34136;51.022;7.082;2022-12-07T01:10:41;5.50;19.50
48328;DHT22;34136;51.022;7.082;2022-12-07T01:13:27;5.60;19.40
48328;DHT22;34136;51.022;7.082;2022-12-07T01:16:15;5.50;19.50
48328;DHT22;34136;51.022;7.082;2022-12-07T01:19:02;5.40;19.20
48328;DHT22;34136;51.022;7.082;2022-12-07T01:21:48;5.50;19.40
48328;DHT22;34136;51.022;7.082;2022-12-07T01:24:34;5.50;19.50
48328;DHT22;34136;51.022;7.082;2022-12-07T01:27:20;5.50;19.40
48328;DHT22;34136;51.022;7.082;2022-12-07T01:30:07;5.50;19.10
48328;DHT22;34136;51.022;7.082;2022-12-07T01:32:54;5.50;19.00
48328;DHT22;34136;51.022;7.082;2022-12-07T01:35:40;5.50;18.90
48328;DHT22;34136;51.022;7.082;2022-12-07T01:38:27;5.60;18.70
48328;DHT22;34136;51.022;7.082;2022-12-07T01:41:14;5.50;18.50
48328;DHT22;34136;51.022;7.082;2022-12-07T01:44:25;5.50;18.50
48328;DHT22;34136;51.022;7.082;2022-12-07T01:47:11;5.40;18.50
48328;DHT22;34136;51.022;7.082;2022-12-07T01:49:57;5.40;19.00
48328;DHT22;34136;51.022;7.082;2022-12-07T01:52:45;5.40;19.40
48328;DHT22;34136;51.022;7.082;2022-12-07T01:55:34;5.40;19.60
48328;DHT22;34136;51.022;7.082;2022-12-07T01:58:24;5.40;19.50
48328;DHT22;34136;51.022;7.082;2022-12-07T02:01:10;5.30;19.50
48328;DHT22;34136;51.022;7.082;2022-12-07T02:03:57;5.40;19.60
48328;DHT22;34136;51.022;7.082;2022-12-07T02:06:44;5.40;19.50
48328;DHT22;34136;51.022;7.082;2022-12-07T02:09:50;5.40;19.40
48328;DHT22;34136;51.022;7.082;2022-12-07T02:13:11;5.40;19.50
48328;DHT22;34136;51.022;7.082;2022-12-07T02:16:25;5.40;19.50
48328;DHT22;34136;51.022;7.082;2022-12-07T02:23:14;5.40;19.90
48328;DHT22;34136;51.022;7.082;2022-12-07T02:32:20;5.40;20.20
48328;DHT22;34136;51.022;7.082;2022-12-07T02:35:58;5.40;20.00
48328;DHT22;34136;51.022;7.082;2022-12-07T02:41:24;5.40;19.90
48328;DHT22;34136;51.022;7.082;2022-12-07T02:44:31;5.40;19.70
48328;DHT22;34136;51.022;7.082;2022-12-07T02:47:20;5.40;19.90
48328;DHT22;34136;51.022;7.082;2022-12-07T02:50:27;5.40;20.00
48328;DHT22;34136;51.022;7.082;2022-12-07T02:53:37;5.50;19.90
48328;DHT22;34136;51.022;7.082;2022-12-07T03:00:11;5.50;19.50
48328;DHT22;34136;51.022;7.082;2022-12-07T03:03:04;5.50;19.40
48328;DHT22;34136;51.022;7.082;2022-12-07T03:09:02;5.50;19.70
48328;DHT22;34136;51.022;7.082;2022-12-07T03:12:13;5.50;19.40
48328;DHT22;34136;51.022;7.082;2022-12-07T03:15:08;5.50;19.30
48328;DHT22;34136;51.022;7.082;2022-12-07T03:17:57;5.50;19.20
48328;DHT22;34136;51.022;7.082;2022-12-07T03:20:46;5.50;19.00
48328;DHT22;34136;51.022;7.082;2022-12-07T03:23:35;5.50;18.90
48328;DHT22;34136;51.022;7.082;2022-12-07T03:26:30;5.50;19.00
48328;DHT22;34136;51.022;7.082;2022-12-07T03:29:22;5.50;19.10
48328;DHT22;34136;51.022;7.082;2022-12-07T03:32:26;5.50;19.20
48328;DHT22;34136;51.022;7.082;2022-12-07T03:35:29;5.50;19.30
48328;DHT22;34136;51.022;7.082;2022-12-07T03:38:21;5.40;19.40
48328;DHT22;34136;51.022;7.082;2022-12-07T03:41:11;5.40;19.60
48328;DHT22;34136;51.022;7.082;2022-12-07T03:43:58;5.40;19.80
48328;DHT22;34136;51.022;7.082;2022-12-07T03:47:03;5.30;19.70
48328;DHT22;34136;51.022;7.082;2022-12-07T03:49:59;5.30;19.80
48328;DHT22;34136;51.022;7.082;2022-12-07T03:52:56;5.30;19.70
48328;DHT22;34136;51.022;7.082;2022-12-07T03:55:46;5.30;19.40
48328;DHT22;34136;51.022;7.082;2022-12-07T03:58:34;5.30;19.40
48328;DHT22;34136;51.022;7.082;2022-12-07T04:01:33;5.30;19.40
48328;DHT22;34136;51.022;7.082;2022-12-07T04:04:20;5.40;19.50
48328;DHT22;34136;51.022;7.082;2022-12-07T04:07:25;5.40;19.90
48328;DHT22;34136;51.022;7.082;2022-12-07T04:10:11;5.30;19.20
48328;DHT22;34136;51.022;7.082;2022-12-07T04:12:58;5.30;19.50
48328;DHT22;34136;51.022;7.082;2022-12-07T04:15:44;5.30;19.60
48328;DHT22;34136;51.022;7.082;2022-12-07T04:18:31;5.40;19.80
48328;DHT22;34136;51.022;7.082;2022-12-07T04:21:17;5.30;19.20
48328;DHT22;34136;51.022;7.082;2022-12-07T04:24:04;5.30;19.20
48328;DHT22;34136;51.022;7.082;2022-12-07T04:27:08;5.30;19.30
48328;DHT22;34136;51.022;7.082;2022-12-07T04:29:55;5.30;19.30
48328;DHT22;34136;51.022;7.082;2022-12-07T04:32:41;5.30;19.00
48328;DHT22;34136;51.022;7.082;2022-12-07T04:35:46;5.30;19.10
48328;DHT22;34136;51.022;7.082;2022-12-07T04:38:32;5.30;19.20
48328;DHT22;34136;51.022;7.082;2022-12-07T04:41:19;5.30;19.30
48328;DHT22;34136;51.022;7.082;2022-12-07T04:44:05;5.30;19.20
48328;DHT22;34136;51.022;7.082;2022-12-07T04:46:52;5.30;19.10
48328;DHT22;34136;51.022;7.082;2022-12-07T04:49:38;5.40;18.90
48328;DHT22;34136;51.022;7.082;2022-12-07T04:52:43;5.30;18.60
48328;DHT22;34136;51.022;7.082;2022-12-07T04:55:30;5.30;18.70
48328;DHT22;34136;51.022;7.082;2022-12-07T04:58:34;5.40;18.90
48328;DHT22;34136;51.022;7.082;2022-12-07T05:01:39;5.30;18.80
48328;DHT22;34136;51.022;7.082;2022-12-07T05:04:25;5.40;18.90
48328;DHT22;34136;51.022;7.082;2022-12-07T05:07:11;5.40;18.80
48328;DHT22;34136;51.022;7.082;2022-12-07T05:09:58;5.40;18.50
48328;DHT22;34136;51.022;7.082;2022-12-07T05:12:44;5.40;18.30
48328;DHT22;34136;51.022;7.082;2022-12-07T05:15:31;5.40;18.40
48328;DHT22;34136;51.022;7.082;2022-12-07T05:18:36;5.40;18.60
48328;DHT22;34136;51.022;7.082;2022-12-07T05:21:22;5.30;18.50
48328;DHT22;34136;51.022;7.082;2022-12-07T05:24:11;5.30;18.10
48328;DHT22;34136;51.022;7.082;2022-12-07T05:26:58;5.30;18.50
48328;DHT22;34136;51.022;7.082;2022-12-07T05:29:44;5.30;18.40
48328;DHT22;34136;51.022;7.082;2022-12-07T05:32:30;5.30;18.60
48328;DHT22;34136;51.022;7.082;2022-12-07T05:35:17;5.40;18.50
48328;DHT22;34136;51.022;7.082;2022-12-07T05:38:03;5.40;18.50
48328;DHT22;34136;51.022;7.082;2022-12-07T05:40:49;5.30;18.20
48328;DHT22;34136;51.022;7.082;2022-12-07T05:43:54;5.30;18.50
48328;DHT22;34136;51.022;7.082;2022-12-07T05:47:00;5.30;18.60
48328;DHT22;34136;51.022;7.082;2022-12-07T05:49:46;5.30;18.50
48328;DHT22;34136;51.022;7.082;2022-12-07T05:52:33;5.20;18.50
48328;DHT22;34136;51.022;7.082;2022-12-07T05:55:19;5.20;18.80
48328;DHT22;34136;51.022;7.082;2022-12-07T05:58:06;5.10;18.80
48328;DHT22;34136;51.022;7.082;2022-12-07T06:00:54;5.10;19.10
48328;DHT22;34136;51.022;7.082;2022-12-07T06:03:41;5.20;18.80
48328;DHT22;34136;51.022;7.082;2022-12-07T06:06:27;5.20;18.60
48328;DHT22;34136;51.022;7.082;2022-12-07T06:09:14;5.20;18.60
48328;DHT22;34136;51.022;7.082;2022-12-07T06:12:00;5.20;18.30
48328;DHT22;34136;51.022;7.082;2022-12-07T06:14:46;5.20;18.10
48328;DHT22;34136;51.022;7.082;2022-12-07T06:17:32;5.20;17.90
48328;DHT22;34136;51.022;7.082;2022-12-07T06:20:18;5.20;17.90
48328;DHT22;34136;51.022;7.082;2022-12-07T06:23:04;5.30;17.80
48328;DHT22;34136;51.022;7.082;2022-12-07T06:25:50;5.20;17.50
48328;DHT22;34136;51.022;7.082;2022-12-07T06:28:36;5.20;17.50
48328;DHT22;34136;51.022;7.082;2022-12-07T06:31:23;5.20;17.10
48328;DHT22;34136;51.022;7.082;2022-12-07T06:34:14;5.20;17.00
48328;DHT22;34136;51.022;7.082;2022-12-07T06:37:01;5.20;17.10
48328;DHT22;34136;51.022;7.082;2022-12-07T06:39:47;5.20;16.90
48328;DHT22;34136;51.022;7.082;2022-12-07T06:42:34;5.30;17.00
48328;DHT22;34136;51.022;7.082;2022-12-07T06:45:20;5.20;16.80
48328;DHT22;34136;51.022;7.082;2022-12-07T06:48:07;5.30;16.70
48328;DHT22;34136;51.022;7.082;2022-12-07T06:50:53;5.20;16.50
48328;DHT22;34136;51.022;7.082;2022-12-07T06:53:40;5.20;16.70
48328;DHT22;34136;51.022;7.082;2022-12-07T06:56:26;5.20;16.70
48328;DHT22;34136;51.022;7.082;2022-12-07T06:59:31;5.20;16.80
48328;DHT22;34136;51.022;7.082;2022-12-07T07:02:17;5.20;16.70
48328;DHT22;34136;51.022;7.082;2022-12-07T07:05:04;5.20;17.00
48328;DHT22;34136;51.022;7.082;2022-12-07T07:07:50;5.10;17.10
48328;DHT22;34136;51.022;7.082;2022-12-07T07:10:37;5.20;17.20
48328;DHT22;34136;51.022;7.082;2022-12-07T07:13:23;5.20;16.80
48328;DHT22;34136;51.022;7.082;2022-12-07T07:16:09;5.20;17.00
48328;DHT22;34136;51.022;7.082;2022-12-07T07:18:56;5.20;16.70
48328;DHT22;34136;51.022;7.082;2022-12-07T07:22:04;5.20;16.80
48328;DHT22;34136;51.022;7.082;2022-12-07T07:25:09;5.10;16.90
48328;DHT22;34136;51.022;7.082;2022-12-07T07:28:14;5.10;17.40
48328;DHT22;34136;51.022;7.082;2022-12-07T07:31:00;5.10;17.70
48328;DHT22;34136;51.022;7.082;2022-12-07T07:34:05;5.20;17.90
48328;DHT22;34136;51.022;7.082;2022-12-07T07:36:52;5.30;17.70
48328;DHT22;34136;51.022;7.082;2022-12-07T07:39:56;5.30;17.20
48328;DHT22;34136;51.022;7.082;2022-12-07T07:43:01;5.40;17.10
48328;DHT22;34136;51.022;7.082;2022-12-07T07:45:47;5.40;16.90
48328;DHT22;34136;51.022;7.082;2022-12-07T07:48:33;5.40;16.70
48328;DHT22;34136;51.022;7.082;2022-12-07T07:51:20;5.40;16.40
48328;DHT22;34136;51.022;7.082;2022-12-07T07:54:24;5.50;16.40
48328;DHT22;34136;51.022;7.082;2022-12-07T07:57:11;5.50;16.00
48328;DHT22;34136;51.022;7.082;2022-12-07T07:59:57;5.50;16.40
48328;DHT22;34136;51.022;7.082;2022-12-07T08:02:43;5.50;15.90
48328;DHT22;34136;51.022;7.082;2022-12-07T08:05:30;5.50;16.10
48328;DHT22;34136;51.022;7.082;2022-12-07T08:08:35;5.60;16.20
48328;DHT22;34136;51.022;7.082;2022-12-07T08:11:21;5.60;16.20
48328;DHT22;34136;51.022;7.082;2022-12-07T08:14:07;5.60;16.00
48328;DHT22;34136;51.022;7.082;2022-12-07T08:16:54;5.60;16.10
48328;DHT22;34136;51.022;7.082;2022-12-07T08:19:40;5.60;15.70
48328;DHT22;34136;51.022;7.082;2022-12-07T08:22:26;5.60;15.90
48328;DHT22;34136;51.022;7.082;2022-12-07T08:25:14;5.60;15.80
48328;DHT22;34136;51.022;7.082;2022-12-07T08:28:00;5.60;15.70
48328;DHT22;34136;51.022;7.082;2022-12-07T08:30:46;5.60;15.40
48328;DHT22;34136;51.022;7.082;2022-12-07T08:33:33;5.50;15.80
48328;DHT22;34136;51.022;7.082;2022-12-07T08:36:19;5.50;16.10
48328;DHT22;34136;51.022;7.082;2022-12-07T08:39:06;5.60;16.60
48328;DHT22;34136;51.022;7.082;2022-12-07T08:42:11;5.60;16.60
48328;DHT22;34136;51.022;7.082;2022-12-07T08:44:57;5.60;16.90
48328;DHT22;34136;51.022;7.082;2022-12-07T08:48:06;5.60;16.90
48328;DHT22;34136;51.022;7.082;2022-12-07T08:51:13;5.60;17.10
48328;DHT22;34136;51.022;7.082;2022-12-07T08:54:01;5.50;17.20
48328;DHT22;34136;51.022;7.082;2022-12-07T08:56:50;5.50;17.30
48328;DHT22;34136;51.022;7.082;2022-12-07T08:59:37;5.60;17.30
48328;DHT22;34136;51.022;7.082;2022-12-07T09:02:23;5.60;17.00
48328;DHT22;34136;51.022;7.082;2022-12-07T09:05:10;5.70;17.00
48328;DHT22;34136;51.022;7.082;2022-12-07T09:08:00;5.70;16.50
48328;DHT22;34136;51.022;7.082;2022-12-07T09:10:47;5.70;16.30
48328;DHT22;34136;51.022;7.082;2022-12-07T09:13:33;5.70;16.40
48328;DHT22;34136;51.022;7.082;2022-12-07T09:16:19;5.60;15.90
48328;DHT22;34136;51.022;7.082;2022-12-07T09:19:06;5.60;15.70
48328;DHT22;34136;51.022;7.082;2022-12-07T09:21:53;5.60;16.20
48328;DHT22;34136;51.022;7.082;2022-12-07T09:24:39;5.60;16.00
48328;DHT22;34136;51.022;7.082;2022-12-07T09:27:26;5.60;16.20
48328;DHT22;34136;51.022;7.082;2022-12-07T09:30:12;5.70;16.50
48328;DHT22;34136;51.022;7.082;2022-12-07T09:32:59;5.70;16.30
48328;DHT22;34136;51.022;7.082;2022-12-07T09:35:46;5.80;16.00
48328;DHT22;34136;51.022;7.082;2022-12-07T09:38:52;5.80;15.70
48328;DHT22;34136;51.022;7.082;2022-12-07T09:41:40;5.80;15.70
48328;DHT22;34136;51.022;7.082;2022-12-07T09:44:27;5.80;15.60
48328;DHT22;34136;51.022;7.082;2022-12-07T09:47:14;5.80;15.80
48328;DHT22;34136;51.022;7.082;2022-12-07T09:50:14;5.80;15.90
48328;DHT22;34136;51.022;7.082;2022-12-07T09:53:14;5.80;16.00
48328;DHT22;34136;51.022;7.082;2022-12-07T09:56:02;5.90;16.10
48328;DHT22;34136;51.022;7.082;2022-12-07T09:59:13;5.90;15.60
48328;DHT22;34136;51.022;7.082;2022-12-07T10:05:16;5.90;15.50
48328;DHT22;34136;51.022;7.082;2022-12-07T10:08:04;5.90;15.40
48328;DHT22;34136;51.022;7.082;2022-12-07T10:11:10;5.90;15.10
48328;DHT22;34136;51.022;7.082;2022-12-07T10:14:10;5.90;15.60
48328;DHT22;34136;51.022;7.082;2022-12-07T10:17:31;6.00;15.40
48328;DHT22;34136;51.022;7.082;2022-12-07T10:20:36;6.00;15.80
48328;DHT22;34136;51.022;7.082;2022-12-07T10:23:22;6.10;15.10
48328;DHT22;34136;51.022;7.082;2022-12-07T10:26:47;6.10;14.80
48328;DHT22;34136;51.022;7.082;2022-12-07T10:29:36;6.10;14.80
48328;DHT22;34136;51.022;7.082;2022-12-07T10:32:31;6.10;14.60
48328;DHT22;34136;51.022;7.082;2022-12-07T10:35:43;6.10;14.50
48328;DHT22;34136;51.022;7.082;2022-12-07T10:38:29;6.10;14.40
48328;DHT22;34136;51.022;7.082;2022-12-07T10:41:16;6.10;14.60
48328;DHT22;34136;51.022;7.082;2022-12-07T10:44:02;6.20;15.00
48328;DHT22;34136;51.022;7.082;2022-12-07T10:46:54;6.20;14.60
48328;DHT22;34136;51.022;7.082;2022-12-07T10:50:10;6.30;14.70
48328;DHT22;34136;51.022;7.082;2022-12-07T10:59:55;6.30;14.60
48328;DHT22;34136;51.022;7.082;2022-12-07T11:15:10;6.50;13.50
48328;DHT22;34136;51.022;7.082;2022-12-07T11:18:26;6.50;13.00
48328;DHT22;34136;51.022;7.082;2022-12-07T11:27:47;6.30;12.30
48328;DHT22;34136;51.022;7.082;2022-12-07T11:34:00;6.30;11.70
48328;DHT22;34136;51.022;7.082;2022-12-07T11:37:13;6.30;13.00
48328;DHT22;34136;51.022;7.082;2022-12-07T11:40:29;6.20;12.50
48328;DHT22;34136;51.022;7.082;2022-12-07T11:46:15;6.20;12.40
48328;DHT22;34136;51.022;7.082;2022-12-07T11:49:09;6.20;13.00
48328;DHT22;34136;51.022;7.082;2022-12-07T11:51:58;6.30;13.20
48328;DHT22;34136;51.022;7.082;2022-12-07T11:54:47;6.20;12.40
48328;DHT22;34136;51.022;7.082;2022-12-07T11:57:44;6.30;12.40
48328;DHT22;34136;51.022;7.082;2022-12-07T12:00:52;6.30;12.00
48328;DHT22;34136;51.022;7.082;2022-12-07T12:03:47;6.40;12.50
48328;DHT22;34136;51.022;7.082;2022-12-07T12:06:43;6.50;12.30
48328;DHT22;34136;51.022;7.082;2022-12-07T12:09:42;6.60;11.90
48328;DHT22;34136;51.022;7.082;2022-12-07T12:21:46;6.50;10.20
48328;DHT22;34136;51.022;7.082;2022-12-07T12:24:34;6.40;9.60
48328;DHT22;34136;51.022;7.082;2022-12-07T12:30:36;6.40;8.40
48328;DHT22;34136;51.022;7.082;2022-12-07T12:33:29;6.30;8.30
48328;DHT22;34136;51.022;7.082;2022-12-07T12:39:19;6.40;8.60
48328;DHT22;34136;51.022;7.082;2022-12-07T12:42:17;6.30;8.80
48328;DHT22;34136;51.022;7.082;2022-12-07T12:48:29;6.40;8.10
48328;DHT22;34136;51.022;7.082;2022-12-07T12:51:36;6.50;7.80
48328;DHT22;34136;51.022;7.082;2022-12-07T12:54:25;6.40;7.10
48328;DHT22;34136;51.022;7.082;2022-12-07T12:57:26;6.40;7.90
48328;DHT22;34136;51.022;7.082;2022-12-07T13:00:18;6.50;8.40
48328;DHT22;34136;51.022;7.082;2022-12-07T13:03:05;6.50;8.00
48328;DHT22;34136;51.022;7.082;2022-12-07T13:09:04;6.70;7.60
48328;DHT22;34136;51.022;7.082;2022-12-07T13:11:59;6.70;8.10
48328;DHT22;34136;51.022;7.082;2022-12-07T13:20:46;6.70;6.90
48328;DHT22;34136;51.022;7.082;2022-12-07T13:26:36;6.70;6.40
48328;DHT22;34136;51.022;7.082;2022-12-07T13:29:23;6.60;5.20
48328;DHT22;34136;51.022;7.082;2022-12-07T13:32:24;6.70;6.70
48328;DHT22;34136;51.022;7.082;2022-12-07T13:35:37;6.70;8.00
48328;DHT22;34136;51.022;7.082;2022-12-07T13:38:28;6.80;7.10
48328;DHT22;34136;51.022;7.082;2022-12-07T13:41:17;6.70;7.50
48328;DHT22;34136;51.022;7.082;2022-12-07T13:44:13;6.70;7.40
48328;DHT22;34136;51.022;7.082;2022-12-07T13:47:26;6.70;7.70
48328;DHT22;34136;51.022;7.082;2022-12-07T13:50:30;6.70;8.00
48328;DHT22;34136;51.022;7.082;2022-12-07T13:53:17;6.60;7.50
48328;DHT22;34136;51.022;7.082;2022-12-07T13:56:03;6.60;7.00
48328;DHT22;34136;51.022;7.082;2022-12-07T13:58:50;6.60;6.10
48328;DHT22;34136;51.022;7.082;2022-12-07T14:01:36;6.50;6.60
48328;DHT22;34136;51.022;7.082;2022-12-07T14:04:35;6.50;7.20
48328;DHT22;34136;51.022;7.082;2022-12-07T14:07:26;6.40;7.20
48328;DHT22;34136;51.022;7.082;2022-12-07T14:10:28;6.50;7.80
48328;DHT22;34136;51.022;7.082;2022-12-07T14:19:06;6.40;8.40
48328;DHT22;34136;51.022;7.082;2022-12-07T14:25:17;6.50;8.10
48328;DHT22;34136;51.022;7.082;2022-12-07T14:28:04;6.50;8.20
48328;DHT22;34136;51.022;7.082;2022-12-07T14:30:50;6.50;8.10
48328;DHT22;34136;51.022;7.082;2022-12-07T14:33:37;6.50;8.40
48328;DHT22;34136;51.022;7.082;2022-12-07T14:36:23;6.60;7.60
48328;DHT22;34136;51.022;7.082;2022-12-07T14:39:10;6.60;7.90
48328;DHT22;34136;51.022;7.082;2022-12-07T14:41:56;6.70;7.80
48328;DHT22;34136;51.022;7.082;2022-12-07T14:44:43;6.60;7.30
48328;DHT22;34136;51.022;7.082;2022-12-07T14:47:29;6.70;8.00
48328;DHT22;34136;51.022;7.082;2022-12-07T14:50:18;6.70;8.90
48328;DHT22;34136;51.022;7.082;2022-12-07T14:53:14;6.70;8.30
48328;DHT22;34136;51.022;7.082;2022-12-07T14:56:01;6.60;7.90
48328;DHT22;34136;51.022;7.082;2022-12-07T14:58:47;6.60;8.70
48328;DHT22;34136;51.022;7.082;2022-12-07T15:01:34;6.60;8.20
48328;DHT22;34136;51.022;7.082;2022-12-07T15:04:47;6.70;8.30
48328;DHT22;34136;51.022;7.082;2022-12-07T15:07:54;6.80;8.40
48328;DHT22;34136;51.022;7.082;2022-12-07T15:10:40;6.70;8.10
48328;DHT22;34136;51.022;7.082;2022-12-07T15:13:26;6.70;8.30
48328;DHT22;34136;51.022;7.082;2022-12-07T15:16:13;6.70;8.50
48328;DHT22;34136;51.022;7.082;2022-12-07T15:19:01;6.70;8.40
48328;DHT22;34136;51.022;7.082;2022-12-07T15:21:48;6.80;8.80
48328;DHT22;34136;51.022;7.082;2022-12-07T15:24:34;6.70;8.90
48328;DHT22;34136;51.022;7.082;2022-12-07T15:27:20;6.70;9.70
48328;DHT22;34136;51.022;7.082;2022-12-07T15:30:07;6.60;9.20
48328;DHT22;34136;51.022;7.082;2022-12-07T15:32:54;6.60;9.40
48328;DHT22;34136;51.022;7.082;2022-12-07T15:35:44;6.60;9.80
48328;DHT22;34136;51.022;7.082;2022-12-07T15:38:32;6.60;10.30
48328;DHT22;34136;51.022;7.082;2022-12-07T15:41:19;6.50;10.30
48328;DHT22;34136;51.022;7.082;2022-12-07T15:44:06;6.40;10.40
48328;DHT22;34136;51.022;7.082;2022-12-07T15:46:52;6.30;10.80
48328;DHT22;34136;51.022;7.082;2022-12-07T15:49:38;6.20;10.20
48328;DHT22;34136;51.022;7.082;2022-12-07T15:52:24;6.20;10.80
48328;DHT22;34136;51.022;7.082;2022-12-07T15:55:13;6.20;10.40
48328;DHT22;34136;51.022;7.082;2022-12-07T15:58:00;6.10;10.20
48328;DHT22;34136;51.022;7.082;2022-12-07T16:00:46;6.00;10.30
48328;DHT22;34136;51.022;7.082;2022-12-07T16:03:35;6.00;10.50
48328;DHT22;34136;51.022;7.082;2022-12-07T16:06:22;6.00;10.10
48328;DHT22;34136;51.022;7.082;2022-12-07T16:09:08;6.10;9.80
48328;DHT22;34136;51.022;7.082;2022-12-07T16:11:54;6.10;9.70
48328;DHT22;34136;51.022;7.082;2022-12-07T16:14:41;6.10;9.30
48328;DHT22;34136;51.022;7.082;2022-12-07T16:17:27;6.00;8.80
48328;DHT22;34136;51.022;7.082;2022-12-07T16:20:14;5.90;9.00
48328;DHT22;34136;51.022;7.082;2022-12-07T16:23:00;5.90;9.80
48328;DHT22;34136;51.022;7.082;2022-12-07T16:26:06;5.90;9.90
48328;DHT22;34136;51.022;7.082;2022-12-07T16:28:53;6.00;9.30
48328;DHT22;34136;51.022;7.082;2022-12-07T16:31:58;6.10;9.00
48328;DHT22;34136;51.022;7.082;2022-12-07T16:35:03;6.00;9.00
48328;DHT22;34136;51.022;7.082;2022-12-07T16:37:49;6.00;9.20
48328;DHT22;34136;51.022;7.082;2022-12-07T16:40:54;5.90;9.40
48328;DHT22;34136;51.022;7.082;2022-12-07T16:43:40;5.90;9.90
48328;DHT22;34136;51.022;7.082;2022-12-07T16:46:26;5.90;10.70
48328;DHT22;34136;51.022;7.082;2022-12-07T16:49:16;5.90;10.40
48328;DHT22;34136;51.022;7.082;2022-12-07T16:52:02;5.80;10.70
48328;DHT22;34136;51.022;7.082;2022-12-07T16:54:49;5.80;11.10
48328;DHT22;34136;51.022;7.082;2022-12-07T16:57:35;5.80;11.00
48328;DHT22;34136;51.022;7.082;2022-12-07T17:00:22;5.90;10.90
48328;DHT22;34136;51.022;7.082;2022-12-07T17:03:08;6.00;10.40
48328;DHT22;34136;51.022;7.082;2022-12-07T17:05:55;5.90;10.70
48328;DHT22;34136;51.022;7.082;2022-12-07T17:08:42;5.90;10.70
48328;DHT22;34136;51.022;7.082;2022-12-07T17:11:30;5.90;10.90
48328;DHT22;34136;51.022;7.082;2022-12-07T17:14:24;5.80;10.70
48328;DHT22;34136;51.022;7.082;2022-12-07T17:17:29;5.80;11.80
48328;DHT22;34136;51.022;7.082;2022-12-07T17:20:16;5.80;10.90
48328;DHT22;34136;51.022;7.082;2022-12-07T17:23:21;5.70;11.10
48328;DHT22;34136;51.022;7.082;2022-12-07T17:26:11;5.80;11.60
48328;DHT22;34136;51.022;7.082;2022-12-07T17:29:17;5.70;12.20
48328;DHT22;34136;51.022;7.082;2022-12-07T17:32:04;5.80;12.10
48328;DHT22;34136;51.022;7.082;2022-12-07T17:34:51;5.80;12.50
48328;DHT22;34136;51.022;7.082;2022-12-07T17:37:37;5.80;12.10
48328;DHT22;34136;51.022;7.082;2022-12-07T17:40:23;5.80;12.00
48328;DHT22;34136;51.022;7.082;2022-12-07T17:43:09;5.80;11.70
48328;DHT22;34136;51.022;7.082;2022-12-07T17:45:55;5.80;12.20
48328;DHT22;34136;51.022;7.082;2022-12-07T17:48:41;5.70;12.40
48328;DHT22;34136;51.022;7.082;2022-12-07T17:51:28;5.70;12.50
48328;DHT22;34136;51.022;7.082;2022-12-07T17:54:14;5.80;12.50
48328;DHT22;34136;51.022;7.082;2022-12-07T17:57:20;5.80;12.30
48328;DHT22;34136;51.022;7.082;2022-12-07T18:00:07;5.80;12.40
48328;DHT22;34136;51.022;7.082;2022-12-07T18:03:00;5.80;12.30
48328;DHT22;34136;51.022;7.082;2022-12-07T18:05:46;5.90;12.50
48328;DHT22;34136;51.022;7.082;2022-12-07T18:08:34;5.90;12.30
48328;DHT22;34136;51.022;7.082;2022-12-07T18:11:20;5.90;12.30
48328;DHT22;34136;51.022;7.082;2022-12-07T18:14:07;5.90;12.30
48328;DHT22;34136;51.022;7.082;2022-12-07T18:16:53;5.90;12.00
48328;DHT22;34136;51.022;7.082;2022-12-07T18:19:39;6.00;11.90
48328;DHT22;34136;51.022;7.082;2022-12-07T18:22:26;5.90;11.70
48328;DHT22;34136;51.022;7.082;2022-12-07T18:25:12;5.80;11.70
48328;DHT22;34136;51.022;7.082;2022-12-07T18:27:58;5.80;12.20
48328;DHT22;34136;51.022;7.082;2022-12-07T18:30:44;5.80;12.10
48328;DHT22;34136;51.022;7.082;2022-12-07T18:33:30;5.80;12.50
48328;DHT22;34136;51.022;7.082;2022-12-07T18:36:36;5.80;12.50
48328;DHT22;34136;51.022;7.082;2022-12-07T18:39:22;5.80;12.40
48328;DHT22;34136;51.022;7.082;2022-12-07T18:42:27;5.70;12.20
48328;DHT22;34136;51.022;7.082;2022-12-07T18:45:13;5.60;13.10
48328;DHT22;34136;51.022;7.082;2022-12-07T18:48:20;5.60;13.30
48328;DHT22;34136;51.022;7.082;2022-12-07T18:51:09;5.70;13.40
48328;DHT22;34136;51.022;7.082;2022-12-07T18:53:56;5.70;13.00
48328;DHT22;34136;51.022;7.082;2022-12-07T18:56:42;5.70;13.10
48328;DHT22;34136;51.022;7.082;2022-12-07T18:59:28;5.70;14.10
48328;DHT22;34136;51.022;7.082;2022-12-07T19:02:15;5.70;13.90
48328;DHT22;34136;51.022;7.082;2022-12-07T19:05:02;5.70;13.90
48328;DHT22;34136;51.022;7.082;2022-12-07T19:07:49;5.70;13.90
48328;DHT22;34136;51.022;7.082;2022-12-07T19:10:35;5.70;13.80
48328;DHT22;34136;51.022;7.082;2022-12-07T19:13:21;5.70;14.00
48328;DHT22;34136;51.022;7.082;2022-12-07T19:16:08;5.60;13.90
48328;DHT22;34136;51.022;7.082;2022-12-07T19:18:54;5.60;14.00
48328;DHT22;34136;51.022;7.082;2022-12-07T19:21:40;5.70;14.60
48328;DHT22;34136;51.022;7.082;2022-12-07T19:24:28;5.50;14.20
48328;DHT22;34136;51.022;7.082;2022-12-07T19:27:14;5.50;14.40
48328;DHT22;34136;51.022;7.082;2022-12-07T19:30:01;5.40;14.00
48328;DHT22;34136;51.022;7.082;2022-12-07T19:32:47;5.40;14.40
48328;DHT22;34136;51.022;7.082;2022-12-07T19:35:33;5.50;14.50
48328;DHT22;34136;51.022;7.082;2022-12-07T19:38:20;5.50;14.00
48328;DHT22;34136;51.022;7.082;2022-12-07T19:41:12;5.60;14.20
48328;DHT22;34136;51.022;7.082;2022-12-07T19:43:59;5.50;14.20
48328;DHT22;34136;51.022;7.082;2022-12-07T19:46:52;5.60;14.00
48328;DHT22;34136;51.022;7.082;2022-12-07T19:49:57;5.50;13.90
48328;DHT22;34136;51.022;7.082;2022-12-07T19:53:02;5.50;13.90
48328;DHT22;34136;51.022;7.082;2022-12-07T19:56:07;5.50;14.60
48328;DHT22;34136;51.022;7.082;2022-12-07T19:58:53;5.60;13.90
48328;DHT22;34136;51.022;7.082;2022-12-07T20:01:58;5.60;13.40